Time;durP1;ratioP1;P1;durP2;ratioP2;P2;SDS_P1;SDS_P2;PMS_P1;PMS_P2;Temp;Humidity;BMP_temperature;BMP_pressure;BME280_temperature;BME280_humidity;BME280_pressure;Samples;Min_cycle;Max_cycle;Signal;HPM_P1;HPM_P2
2023/12/10 00:00:40;;;;;;;11.32;2.40;;;8.00;99.90;;;;;;5019882;28;20026;-73
2023/12/10 00:03:05;;;;;;;21.55;2.10;;;8.00;99.90;;;;;;5019508;28;20026;-72
2023/12/10 00:05:31;;;;;;;10.48;1.98;;;8.10;99.90;;;;;;5018673;28;20057;-72
2023/12/10 00:07:57;;;;;;;13.07;2.30;;;8.10;99.90;;;;;;5019686;28;20029;-72
2023/12/10 00:10:23;;;;;;;11.85;2.05;;;8.20;99.90;;;;;;5018628;28;20030;-72
2023/12/10 00:12:48;;;;;;;16.85;2.42;;;8.20;99.90;;;;;;5018752;28;20022;-72
2023/12/10 00:15:14;;;;;;;15.10;2.35;;;8.20;99.90;;;;;;5018380;28;20034;-73
2023/12/10 00:17:39;;;;;;;9.32;3.00;;;8.10;99.90;;;;;;5018330;28;20030;-72
2023/12/10 00:20:06;;;;;;;17.23;2.83;;;8.10;99.90;;;;;;5018348;28;20025;-72
2023/12/10 00:22:31;;;;;;;18.25;2.35;;;8.10;99.90;;;;;;5018713;28;20052;-72
2023/12/10 00:24:57;;;;;;;14.40;2.10;;;8.10;99.90;;;;;;5018515;28;20018;-72
2023/12/10 00:27:22;;;;;;;24.02;2.85;;;8.00;99.90;;;;;;5018551;28;20029;-72
2023/12/10 00:29:48;;;;;;;14.70;2.03;;;8.10;99.90;;;;;;5018154;28;20030;-72
2023/12/10 00:32:13;;;;;;;10.55;4.13;;;8.10;99.90;;;;;;5016722;28;20029;-72
2023/12/10 00:34:39;;;;;;;11.23;1.98;;;8.10;99.90;;;;;;5018820;28;20022;-72
2023/12/10 00:37:05;;;;;;;9.95;2.90;;;8.10;99.90;;;;;;5018212;28;20029;-72
2023/12/10 00:39:31;;;;;;;21.30;2.58;;;8.20;99.90;;;;;;5017977;28;20097;-71
2023/12/10 00:41:56;;;;;;;12.43;2.45;;;8.10;99.90;;;;;;5017895;28;20038;-71
2023/12/10 00:44:22;;;;;;;14.88;2.20;;;8.10;99.90;;;;;;5018569;28;20108;-71
2023/12/10 00:46:47;;;;;;;9.95;2.20;;;8.20;99.90;;;;;;5018602;28;20025;-70
2023/12/10 00:49:13;;;;;;;13.50;2.28;;;8.20;99.90;;;;;;5017875;28;20018;-72
2023/12/10 00:51:38;;;;;;;19.90;2.53;;;8.20;99.90;;;;;;5018597;28;20018;-72
2023/12/10 00:54:06;;;;;;;13.80;3.35;;;8.20;99.90;;;;;;5019013;28;20053;-72
2023/12/10 00:56:32;;;;;;;13.40;2.83;;;8.20;99.90;;;;;;5018611;28;20050;-72
2023/12/10 00:58:57;;;;;;;17.73;3.00;;;8.20;99.90;;;;;;5017609;28;20026;-72
2023/12/10 01:01:23;;;;;;;15.23;3.75;;;8.20;99.90;;;;;;5018595;28;20105;-72
2023/12/10 01:03:49;;;;;;;20.73;5.45;;;8.20;99.90;;;;;;5018214;28;20022;-72
2023/12/10 01:06:15;;;;;;;22.10;3.08;;;8.20;99.90;;;;;;5018173;28;20116;-72
2023/12/10 01:08:40;;;;;;;20.38;3.13;;;8.20;99.90;;;;;;5018302;28;20026;-72
2023/12/10 01:11:06;;;;;;;16.27;2.50;;;8.20;99.90;;;;;;5017423;28;20049;-72
2023/12/10 01:13:32;;;;;;;20.40;2.63;;;8.30;99.90;;;;;;5017568;28;20022;-71
2023/12/10 01:15:57;;;;;;;16.50;2.67;;;8.30;99.90;;;;;;5017524;28;20037;-71
2023/12/10 01:18:23;;;;;;;16.67;3.45;;;8.30;99.90;;;;;;5018177;28;20080;-72
2023/12/10 01:20:49;;;;;;;12.57;2.40;;;8.30;99.90;;;;;;5017273;28;20030;-70
2023/12/10 01:23:15;;;;;;;17.98;2.40;;;8.30;99.90;;;;;;5018080;28;20041;-72
2023/12/10 01:25:41;;;;;;;23.02;3.08;;;8.30;99.90;;;;;;5018395;28;20022;-72
2023/12/10 01:28:09;;;;;;;24.58;3.78;;;8.20;99.90;;;;;;5017947;28;20029;-72
2023/12/10 01:30:35;;;;;;;33.00;3.95;;;8.20;99.90;;;;;;5017270;28;20032;-72
2023/12/10 01:33:01;;;;;;;26.23;3.45;;;8.20;99.90;;;;;;5016890;28;20121;-72
2023/12/10 01:35:26;;;;;;;17.13;2.60;;;8.10;99.90;;;;;;5017132;28;20084;-72
2023/12/10 01:37:52;;;;;;;25.42;2.92;;;8.20;99.90;;;;;;5016916;28;20022;-71
2023/12/10 01:40:22;;;;;;;16.75;2.67;;;8.30;99.90;;;;;;5016824;28;20037;-71
2023/12/10 01:42:48;;;;;;;24.63;3.25;;;8.40;99.90;;;;;;5017340;28;20037;-71
2023/12/10 01:45:14;;;;;;;15.68;2.97;;;8.40;99.90;;;;;;5016761;28;20014;-72
2023/12/10 01:47:42;;;;;;;11.88;2.28;;;8.40;99.90;;;;;;5016967;28;20026;-71
2023/12/10 01:50:15;;;;;;;13.38;1.92;;;8.50;99.90;;;;;;5017914;28;20022;-71
2023/12/10 01:52:42;;;;;;;22.92;2.92;;;8.50;99.90;;;;;;5016590;28;20033;-71
2023/12/10 01:55:09;;;;;;;30.25;2.63;;;8.40;99.90;;;;;;5016793;28;20030;-71
2023/12/10 01:57:36;;;;;;;15.40;2.60;;;8.40;99.90;;;;;;5016707;28;20033;-71
2023/12/10 02:00:06;;;;;;;22.55;2.63;;;8.40;99.90;;;;;;5017365;28;20072;-71
2023/12/10 02:02:33;;;;;;;19.85;3.80;;;8.40;99.90;;;;;;5017292;28;20054;-72
2023/12/10 02:05:07;;;;;;;21.35;2.55;;;8.40;99.90;;;;;;5017321;28;20025;-72
2023/12/10 02:07:33;;;;;;;20.02;3.67;;;8.50;99.90;;;;;;5016426;28;20022;-71
2023/12/10 02:09:59;;;;;;;29.13;2.92;;;8.50;99.90;;;;;;5016502;28;20036;-71
2023/12/10 02:12:27;;;;;;;23.77;3.35;;;8.50;99.90;;;;;;5017194;28;20026;-71
2023/12/10 02:14:53;;;;;;;24.17;3.25;;;8.60;99.90;;;;;;5017501;28;20026;-71
2023/12/10 02:17:19;;;;;;;21.23;3.33;;;8.60;99.90;;;;;;5016323;28;20026;-71
2023/12/10 02:19:44;;;;;;;19.58;3.05;;;8.60;99.90;;;;;;5016480;28;20117;-71
2023/12/10 02:22:14;;;;;;;26.48;3.22;;;8.60;99.90;;;;;;5017028;28;20108;-72
2023/12/10 02:24:50;;;;;;;19.60;3.00;;;8.40;99.90;;;;;;5016247;28;20018;-71
2023/12/10 02:27:16;;;;;;;17.77;2.67;;;8.50;99.90;;;;;;5016226;28;20021;-71
2023/12/10 02:29:42;;;;;;;23.60;3.92;;;8.50;99.90;;;;;;5017119;28;20032;-71
2023/12/10 02:32:08;;;;;;;26.17;4.07;;;8.50;99.90;;;;;;5016197;28;20045;-71
2023/12/10 02:34:35;;;;;;;19.25;2.58;;;8.40;99.90;;;;;;5017339;28;20026;-71
2023/12/10 02:37:01;;;;;;;15.90;2.67;;;8.60;99.90;;;;;;5017203;28;20018;-71
2023/12/10 02:39:26;;;;;;;13.88;2.78;;;8.60;99.90;;;;;;5017056;28;20026;-71
2023/12/10 02:41:52;;;;;;;24.85;2.90;;;8.60;99.90;;;;;;5016542;28;20029;-71
2023/12/10 02:44:17;;;;;;;23.50;3.55;;;8.70;99.90;;;;;;5015959;28;20041;-71
2023/12/10 02:46:50;;;;;;;16.65;3.03;;;8.60;99.90;;;;;;5017481;28;20018;-71
2023/12/10 02:49:16;;;;;;;23.08;3.83;;;8.60;99.90;;;;;;5016851;28;20080;-71
2023/12/10 02:51:41;;;;;;;29.67;3.67;;;8.50;99.90;;;;;;5016224;28;20026;-71
2023/12/10 02:54:07;;;;;;;23.50;3.50;;;8.50;99.90;;;;;;5017154;28;20065;-71
2023/12/10 02:56:32;;;;;;;20.67;3.30;;;8.50;99.90;;;;;;5020567;28;20061;-71
2023/12/10 02:58:58;;;;;;;22.58;4.43;;;8.50;99.90;;;;;;5020821;28;20044;-71
2023/12/10 03:01:24;;;;;;;15.85;3.25;;;8.50;99.90;;;;;;5020013;28;20087;-71
2023/12/10 03:03:49;;;;;;;16.15;2.60;;;8.50;99.90;;;;;;5020539;28;20140;-71
2023/12/10 03:06:15;;;;;;;15.23;3.30;;;8.50;99.90;;;;;;5019780;28;20025;-71
2023/12/10 03:08:41;;;;;;;28.10;4.10;;;8.50;99.90;;;;;;5019697;28;20057;-70
2023/12/10 03:11:06;;;;;;;31.20;3.35;;;8.50;99.90;;;;;;5020551;28;20025;-71
2023/12/10 03:13:32;;;;;;;26.65;3.70;;;8.50;99.90;;;;;;5019393;28;20040;-71
2023/12/10 03:15:57;;;;;;;18.58;3.17;;;8.50;99.90;;;;;;5019846;28;20021;-71
2023/12/10 03:18:25;;;;;;;15.23;2.40;;;8.50;99.90;;;;;;5020381;28;20021;-71
2023/12/10 03:20:50;;;;;;;15.13;2.40;;;8.50;99.90;;;;;;5019420;28;20028;-71
2023/12/10 03:23:17;;;;;;;21.65;2.67;;;8.50;99.90;;;;;;5019152;28;20029;-71
2023/12/10 03:25:42;;;;;;;22.65;3.15;;;8.50;99.90;;;;;;5020294;28;20029;-71
2023/12/10 03:28:08;;;;;;;23.73;3.53;;;8.50;99.90;;;;;;5019238;28;20116;-71
2023/12/10 03:30:33;;;;;;;20.42;2.72;;;8.50;99.90;;;;;;5020259;28;20022;-71
2023/12/10 03:32:59;;;;;;;16.77;2.78;;;8.60;99.90;;;;;;5019793;28;20033;-71
2023/12/10 03:35:24;;;;;;;15.40;2.53;;;8.50;99.90;;;;;;5019115;28;20021;-71
2023/12/10 03:37:50;;;;;;;16.33;2.85;;;8.50;99.90;;;;;;5019443;28;20052;-71
2023/12/10 03:40:15;;;;;;;26.38;2.75;;;8.50;99.90;;;;;;5019333;28;20033;-70
2023/12/10 03:42:41;;;;;;;7.40;2.00;;;8.50;99.90;;;;;;5018899;28;20126;-71
2023/12/10 03:45:07;;;;;;;21.45;3.03;;;8.50;99.90;;;;;;5019398;28;20030;-71
2023/12/10 03:47:33;;;;;;;16.13;2.40;;;8.40;99.90;;;;;;5018919;28;20018;-71
2023/12/10 03:49:58;;;;;;;18.02;2.30;;;8.40;99.90;;;;;;5018877;28;20018;-71
2023/12/10 03:52:24;;;;;;;20.95;4.20;;;8.50;99.90;;;;;;5018684;28;20032;-71
2023/12/10 03:54:49;;;;;;;16.58;2.05;;;8.50;99.90;;;;;;5019621;28;20057;-71
2023/12/10 03:57:15;;;;;;;17.33;2.97;;;8.50;99.90;;;;;;5018841;28;20029;-71
2023/12/10 03:59:41;;;;;;;24.25;2.88;;;8.50;99.90;;;;;;5018713;28;20026;-71
2023/12/10 04:02:06;;;;;;;11.73;1.83;;;8.50;99.90;;;;;;5018874;28;20034;-71
2023/12/10 04:04:32;;;;;;;15.82;2.65;;;8.50;99.90;;;;;;5018516;28;20046;-71
2023/12/10 04:06:57;;;;;;;14.85;2.60;;;8.50;99.90;;;;;;5018334;28;20022;-71
2023/12/10 04:09:23;;;;;;;18.88;2.80;;;8.60;99.90;;;;;;5018636;28;20076;-71
2023/12/10 04:11:49;;;;;;;18.25;2.35;;;8.60;99.90;;;;;;5019395;28;20036;-71
2023/12/10 04:14:14;;;;;;;17.75;1.98;;;8.60;99.90;;;;;;5018427;28;20025;-71
2023/12/10 04:16:40;;;;;;;11.48;2.08;;;8.60;99.90;;;;;;5019185;28;20030;-71
2023/12/10 04:19:05;;;;;;;19.20;3.80;;;8.60;99.90;;;;;;5019235;28;20026;-71
2023/12/10 04:21:31;;;;;;;17.20;2.30;;;8.60;99.90;;;;;;5019280;28;20036;-71
2023/12/10 04:23:57;;;;;;;20.50;2.40;;;8.60;99.90;;;;;;5018950;28;20038;-71
2023/12/10 04:26:22;;;;;;;15.85;2.97;;;8.60;99.90;;;;;;5019102;28;20037;-71
2023/12/10 04:28:49;;;;;;;13.40;2.63;;;8.60;99.90;;;;;;5019112;28;20053;-71
2023/12/10 04:31:15;;;;;;;11.10;1.80;;;8.60;99.90;;;;;;5018067;28;20033;-71
2023/12/10 04:33:44;;;;;;;15.32;2.20;;;8.60;99.90;;;;;;5018405;28;20034;-71
2023/12/10 04:36:09;;;;;;;11.25;1.80;;;8.60;99.90;;;;;;5018347;28;20030;-71
2023/12/10 04:38:35;;;;;;;15.57;2.67;;;8.60;99.90;;;;;;5018188;28;20033;-71
2023/12/10 04:41:01;;;;;;;18.92;2.20;;;8.60;99.90;;;;;;5018223;28;20169;-71
2023/12/10 04:43:26;;;;;;;14.13;2.15;;;8.60;99.90;;;;;;5017701;28;20030;-71
2023/12/10 04:45:52;;;;;;;13.45;1.80;;;8.60;99.90;;;;;;5018311;28;20026;-71
2023/12/10 04:48:17;;;;;;;11.15;2.28;;;8.60;99.90;;;;;;5018314;28;20026;-72
2023/12/10 04:50:43;;;;;;;15.93;2.55;;;8.60;99.90;;;;;;5018652;28;20082;-71
2023/12/10 04:53:08;;;;;;;18.55;2.38;;;8.70;99.90;;;;;;5018841;28;20077;-71
2023/12/10 04:55:34;;;;;;;9.68;1.92;;;8.70;99.90;;;;;;5017796;28;20038;-71
2023/12/10 04:58:00;;;;;;;17.35;1.80;;;8.70;99.90;;;;;;5018364;28;20037;-71
2023/12/10 05:00:25;;;;;;;16.90;2.65;;;8.70;99.90;;;;;;5017686;28;20029;-71
2023/12/10 05:02:51;;;;;;;14.90;2.67;;;8.70;99.90;;;;;;5018292;28;20026;-71
2023/12/10 05:05:17;;;;;;;20.63;2.42;;;8.70;99.90;;;;;;5018394;28;20030;-71
2023/12/10 05:07:43;;;;;;;17.15;2.83;;;8.70;99.90;;;;;;5018291;28;20021;-71
2023/12/10 05:10:09;;;;;;;22.13;2.78;;;8.70;99.90;;;;;;5018515;28;20052;-71
2023/12/10 05:12:34;;;;;;;17.95;3.70;;;8.70;99.90;;;;;;5017276;28;20072;-71
2023/12/10 05:15:00;;;;;;;19.55;2.28;;;8.80;99.90;;;;;;5017671;28;20026;-71
2023/12/10 05:17:26;;;;;;;16.58;2.13;;;8.80;99.90;;;;;;5016519;28;20021;-71
2023/12/10 05:19:52;;;;;;;21.67;2.70;;;8.80;99.90;;;;;;5017602;28;20029;-71
2023/12/10 05:22:19;;;;;;;11.88;2.95;;;8.70;99.90;;;;;;5018082;28;20032;-71
2023/12/10 05:24:44;;;;;;;18.13;2.38;;;8.70;99.90;;;;;;5017104;28;20022;-71
2023/12/10 05:27:11;;;;;;;11.50;2.33;;;8.70;99.90;;;;;;5017086;28;20025;-71
2023/12/10 05:29:36;;;;;;;17.92;2.10;;;8.70;99.90;;;;;;5018212;28;20042;-71
2023/12/10 05:32:02;;;;;;;10.82;1.70;;;8.70;99.90;;;;;;5017919;28;20026;-71
2023/12/10 05:34:28;;;;;;;19.73;2.55;;;8.70;99.90;;;;;;5018072;28;20037;-71
2023/12/10 05:36:53;;;;;;;15.88;3.33;;;8.70;99.90;;;;;;5017921;28;20041;-71
2023/12/10 05:39:19;;;;;;;15.55;2.55;;;8.80;99.90;;;;;;5017382;28;20061;-69
2023/12/10 05:41:44;;;;;;;17.75;2.03;;;8.80;99.90;;;;;;5017498;28;20041;-70
2023/12/10 05:44:10;;;;;;;12.35;1.83;;;8.80;99.90;;;;;;5018141;28;20095;-62
2023/12/10 05:46:35;;;;;;;13.70;2.25;;;8.80;99.90;;;;;;5017741;28;20017;-63
2023/12/10 05:49:01;;;;;;;21.65;3.20;;;8.80;99.90;;;;;;5016679;28;20097;-63
2023/12/10 05:51:27;;;;;;;9.95;2.13;;;8.80;99.90;;;;;;5016753;28;20104;-63
2023/12/10 05:53:53;;;;;;;26.40;3.08;;;8.80;99.90;;;;;;5017510;28;20018;-63
2023/12/10 05:56:19;;;;;;;14.80;2.67;;;8.80;99.90;;;;;;5017069;28;20025;-62
2023/12/10 05:58:44;;;;;;;17.13;3.05;;;8.80;99.90;;;;;;5017623;28;20052;-63
2023/12/10 06:01:10;;;;;;;11.25;2.08;;;8.70;99.90;;;;;;5017307;28;20030;-63
2023/12/10 06:03:36;;;;;;;24.25;2.33;;;8.70;99.90;;;;;;5016442;28;20048;-63
2023/12/10 06:06:01;;;;;;;17.90;2.28;;;8.70;99.90;;;;;;5016740;28;20049;-63
2023/12/10 06:08:27;;;;;;;17.50;2.08;;;8.70;99.90;;;;;;5017204;28;20025;-63
2023/12/10 06:10:52;;;;;;;18.60;1.80;;;8.70;99.90;;;;;;5017224;28;20032;-63
2023/12/10 06:13:18;;;;;;;13.32;2.28;;;8.70;99.90;;;;;;5016329;28;20026;-63
2023/12/10 06:15:45;;;;;;;13.00;2.28;;;8.60;99.90;;;;;;5016661;28;20112;-63
2023/12/10 06:18:10;;;;;;;21.58;2.10;;;8.60;99.90;;;;;;5016526;28;20026;-63
2023/12/10 06:20:36;;;;;;;13.48;2.45;;;8.60;99.90;;;;;;5016258;28;20022;-63
2023/12/10 06:23:02;;;;;;;18.13;2.08;;;8.50;99.90;;;;;;5016605;28;20025;-63
2023/12/10 06:25:28;;;;;;;10.18;2.50;;;8.50;99.90;;;;;;5017243;28;20029;-63
2023/12/10 06:27:59;;;;;;;11.75;2.08;;;8.50;99.90;;;;;;5016098;28;20022;-63
2023/12/10 06:30:25;;;;;;;8.43;1.83;;;8.50;99.90;;;;;;5017185;28;20034;-64
2023/12/10 06:32:50;;;;;;;12.00;2.42;;;8.40;99.90;;;;;;5017088;28;20030;-62
2023/12/10 06:35:17;;;;;;;15.07;2.72;;;8.40;99.90;;;;;;5017071;28;20030;-62
2023/12/10 06:37:43;;;;;;;14.68;2.63;;;8.40;99.90;;;;;;5017049;28;20072;-63
2023/12/10 06:40:09;;;;;;;25.92;2.65;;;8.40;99.90;;;;;;5016705;28;20029;-63
2023/12/10 06:42:35;;;;;;;23.27;2.88;;;8.50;99.90;;;;;;5017024;28;20030;-63
2023/12/10 06:45:03;;;;;;;14.77;3.05;;;8.50;99.90;;;;;;5016137;28;20033;-63
2023/12/10 06:47:28;;;;;;;17.63;2.70;;;8.50;99.90;;;;;;5017425;28;20018;-63
2023/12/10 06:49:55;;;;;;;15.35;2.67;;;8.50;99.90;;;;;;5017029;28;20029;-63
2023/12/10 06:52:20;;;;;;;16.38;2.58;;;8.50;99.90;;;;;;5017108;28;20030;-63
2023/12/10 06:54:46;;;;;;;21.90;2.58;;;8.40;99.90;;;;;;5016241;28;20033;-63
2023/12/10 06:57:12;;;;;;;18.73;2.92;;;8.30;99.90;;;;;;5016166;28;20018;-63
2023/12/10 06:59:37;;;;;;;19.73;3.38;;;8.30;99.90;;;;;;5016002;28;20089;-64
2023/12/10 07:02:03;;;;;;;9.63;1.92;;;8.30;99.90;;;;;;5016849;28;20036;-63
2023/12/10 07:04:28;;;;;;;10.18;1.90;;;8.20;99.90;;;;;;5015828;28;20034;-63
2023/12/10 07:06:54;;;;;;;16.80;2.10;;;8.20;99.90;;;;;;5015846;28;20030;-63
2023/12/10 07:09:20;;;;;;;21.00;3.45;;;8.30;99.90;;;;;;5016860;28;20029;-63
2023/12/10 07:11:45;;;;;;;13.10;2.60;;;8.20;99.90;;;;;;5015798;28;20068;-63
2023/12/10 07:14:11;;;;;;;21.73;2.70;;;8.20;99.90;;;;;;5016683;28;20028;-63
2023/12/10 07:16:37;;;;;;;12.38;2.30;;;8.20;99.90;;;;;;5016822;28;20060;-63
2023/12/10 07:19:02;;;;;;;18.60;2.25;;;8.20;99.90;;;;;;5015735;28;20057;-63
2023/12/10 07:21:28;;;;;;;21.77;2.47;;;8.20;99.90;;;;;;5015763;28;20032;-63
2023/12/10 07:23:54;;;;;;;19.08;3.45;;;8.10;99.90;;;;;;5016438;28;20061;-63
2023/12/10 07:26:23;;;;;;;27.95;3.17;;;8.10;99.90;;;;;;5015943;28;20026;-62
2023/12/10 07:28:49;;;;;;;23.40;3.28;;;8.10;99.90;;;;;;5015784;28;20091;-63
2023/12/10 07:31:15;;;;;;;27.95;2.60;;;8.10;99.90;;;;;;5016518;28;20029;-63
2023/12/10 07:33:41;;;;;;;16.42;3.10;;;8.10;99.90;;;;;;5016457;28;20022;-63
2023/12/10 07:36:07;;;;;;;24.25;3.38;;;8.20;99.90;;;;;;5016594;28;20025;-63
2023/12/10 07:38:33;;;;;;;18.98;4.15;;;8.20;99.90;;;;;;5015857;28;20113;-63
2023/12/10 07:40:58;;;;;;;18.52;2.40;;;8.20;99.90;;;;;;5016836;28;20045;-63
2023/12/10 07:43:24;;;;;;;26.15;4.15;;;8.20;99.90;;;;;;5019260;28;20113;-63
2023/12/10 07:45:50;;;;;;;18.92;3.03;;;8.20;99.90;;;;;;5019296;28;20022;-64
2023/12/10 07:48:15;;;;;;;19.15;2.63;;;8.20;99.90;;;;;;5020064;28;20060;-63
2023/12/10 07:50:41;;;;;;;20.55;3.22;;;8.20;99.90;;;;;;5018771;28;20029;-63
2023/12/10 07:53:07;;;;;;;20.70;3.55;;;8.30;99.90;;;;;;5018981;28;20194;-63
2023/12/10 07:55:32;;;;;;;20.77;3.15;;;8.30;99.90;;;;;;5019740;28;20037;-63
2023/12/10 07:57:58;;;;;;;16.30;2.55;;;8.40;99.90;;;;;;5019238;28;20032;-63
2023/12/10 08:00:24;;;;;;;23.05;2.65;;;8.30;99.90;;;;;;5019060;28;20117;-63
2023/12/10 08:02:49;;;;;;;33.28;3.85;;;8.30;99.90;;;;;;5019518;28;20022;-63
2023/12/10 08:05:15;;;;;;;11.68;2.33;;;8.30;99.90;;;;;;5019326;28;20056;-63
2023/12/10 08:07:41;;;;;;;14.30;2.88;;;8.40;99.90;;;;;;5018765;28;20116;-63
2023/12/10 08:10:07;;;;;;;20.55;3.30;;;8.40;99.90;;;;;;5018576;28;20029;-63
2023/12/10 08:12:33;;;;;;;9.45;1.83;;;8.40;99.90;;;;;;5019393;28;20022;-63
2023/12/10 08:14:59;;;;;;;12.57;1.90;;;8.40;99.90;;;;;;5018619;28;20153;-63
2023/12/10 08:17:24;;;;;;;26.30;2.72;;;8.30;99.90;;;;;;5019382;28;20033;-63
2023/12/10 08:19:50;;;;;;;18.38;1.90;;;8.40;99.90;;;;;;5019413;28;20080;-63
2023/12/10 08:22:15;;;;;;;17.52;2.85;;;8.40;99.90;;;;;;5018219;28;20038;-63
2023/12/10 08:24:41;;;;;;;11.93;2.47;;;8.40;99.90;;;;;;5019264;28;20022;-63
2023/12/10 08:27:06;;;;;;;16.20;2.70;;;8.40;99.90;;;;;;5018615;28;20064;-63
2023/12/10 08:29:32;;;;;;;16.15;2.65;;;8.40;99.90;;;;;;5018287;28;20033;-63
2023/12/10 08:31:58;;;;;;;13.65;2.83;;;8.40;99.90;;;;;;5018432;28;20024;-62
2023/12/10 08:34:24;;;;;;;18.75;3.08;;;8.40;99.90;;;;;;5019001;28;20026;-63
2023/12/10 08:36:49;;;;;;;15.55;1.92;;;8.50;99.90;;;;;;5018342;28;20026;-63
2023/12/10 08:39:15;;;;;;;9.43;2.00;;;8.50;99.90;;;;;;5018645;28;20030;-63
2023/12/10 08:41:41;;;;;;;23.08;2.85;;;8.50;99.90;;;;;;5017796;28;20033;-63
2023/12/10 08:44:06;;;;;;;17.17;3.10;;;8.50;99.90;;;;;;5017946;28;20080;-63
2023/12/10 08:46:32;;;;;;;22.30;3.05;;;8.50;99.90;;;;;;5018686;28;20054;-63
2023/12/10 08:48:58;;;;;;;19.90;2.65;;;8.60;99.90;;;;;;5018240;28;20080;-63
2023/12/10 08:51:23;;;;;;;21.35;2.63;;;8.60;99.90;;;;;;5017855;28;20115;-63
2023/12/10 08:53:49;;;;;;;19.77;2.33;;;8.60;99.90;;;;;;5017091;28;20022;-63
2023/12/10 08:56:14;;;;;;;19.20;2.17;;;8.60;99.90;;;;;;5018846;28;20029;-63
2023/12/10 08:58:40;;;;;;;19.88;3.72;;;8.70;99.90;;;;;;5017959;28;20064;-63
2023/12/10 09:01:06;;;;;;;20.27;2.58;;;8.80;99.90;;;;;;5017679;28;20029;-63
2023/12/10 09:03:32;;;;;;;13.32;2.35;;;8.80;99.90;;;;;;5017793;28;20077;-63
2023/12/10 09:05:58;;;;;;;21.35;3.00;;;8.80;99.90;;;;;;5017449;28;20064;-63
2023/12/10 09:08:26;;;;;;;11.90;2.35;;;8.80;99.90;;;;;;5017658;28;20022;-63
2023/12/10 09:10:52;;;;;;;16.98;2.97;;;8.80;99.90;;;;;;5018776;28;20044;-63
2023/12/10 09:13:18;;;;;;;14.10;2.33;;;8.80;99.90;;;;;;5019062;28;20057;-63
2023/12/10 09:15:43;;;;;;;18.83;2.60;;;8.90;99.90;;;;;;5017925;28;20025;-63
2023/12/10 09:18:09;;;;;;;14.95;2.13;;;8.90;99.90;;;;;;5018092;28;20022;-71
2023/12/10 09:20:36;;;;;;;32.95;3.30;;;8.90;99.90;;;;;;5018446;28;20026;-71
2023/12/10 09:23:01;;;;;;;21.27;2.45;;;8.90;99.90;;;;;;5017074;28;20032;-71
2023/12/10 09:25:27;;;;;;;14.25;2.95;;;8.80;99.90;;;;;;5017387;28;20026;-71
2023/12/10 09:27:52;;;;;;;17.10;2.22;;;8.90;99.90;;;;;;5017992;28;20060;-72
2023/12/10 09:30:18;;;;;;;16.88;2.50;;;8.90;99.90;;;;;;5017022;28;20022;-71
2023/12/10 09:32:44;;;;;;;13.18;2.40;;;8.90;99.90;;;;;;5017881;28;20022;-71
2023/12/10 09:35:10;;;;;;;11.68;2.95;;;8.90;99.90;;;;;;5018091;28;20033;-71
2023/12/10 09:37:37;;;;;;;17.20;3.30;;;8.90;99.90;;;;;;5017813;28;20025;-71
2023/12/10 09:40:03;;;;;;;11.25;2.45;;;8.90;99.90;;;;;;5017632;28;20018;-71
2023/12/10 09:42:29;;;;;;;10.85;1.73;;;9.00;99.90;;;;;;5016645;28;20069;-71
2023/12/10 09:44:54;;;;;;;14.57;1.92;;;9.00;99.90;;;;;;5016906;28;20116;-71
2023/12/10 09:47:20;;;;;;;14.80;3.30;;;9.00;99.90;;;;;;5017277;28;20037;-71
2023/12/10 09:49:47;;;;;;;13.95;2.78;;;9.10;99.90;;;;;;5016612;28;20022;-74
2023/12/10 09:52:12;;;;;;;14.80;2.40;;;9.20;99.90;;;;;;5016592;28;20022;-73
2023/12/10 09:54:42;;;;;;;14.55;2.50;;;9.30;99.90;;;;;;5017750;28;20040;-74
2023/12/10 09:57:07;;;;;;;15.55;2.58;;;9.40;99.90;;;;;;5017307;28;20089;-74
2023/12/10 09:59:34;;;;;;;19.83;2.47;;;9.50;99.90;;;;;;5017477;28;20061;-77
2023/12/10 10:01:59;;;;;;;20.63;2.33;;;9.60;99.90;;;;;;5017416;28;20121;-75
2023/12/10 10:04:25;;;;;;;16.98;3.22;;;9.60;99.90;;;;;;5017198;28;20108;-74
2023/12/10 10:06:51;;;;;;;22.42;2.53;;;9.60;99.90;;;;;;5017675;28;20022;-76
2023/12/10 10:09:16;;;;;;;11.23;1.63;;;9.70;99.90;;;;;;5017268;28;20080;-75
2023/12/10 10:11:47;;;;;;;13.38;1.83;;;9.80;99.90;;;;;;5016369;28;20029;-76
2023/12/10 10:14:12;;;;;;;11.98;2.13;;;9.90;99.90;;;;;;5017612;28;20017;-74
2023/12/10 10:16:39;;;;;;;22.60;2.85;;;9.90;99.90;;;;;;5017387;28;20087;-73
2023/12/10 10:19:05;;;;;;;15.75;2.13;;;9.90;99.90;;;;;;5017474;28;20050;-73
2023/12/10 10:21:31;;;;;;;11.93;1.30;;;9.90;99.90;;;;;;5016746;28;20026;-74
2023/12/10 10:23:56;;;;;;;19.30;1.88;;;10.00;99.90;;;;;;5016412;28;20084;-75
2023/12/10 10:26:22;;;;;;;16.02;2.90;;;10.00;99.90;;;;;;5016651;28;20075;-76
2023/12/10 10:28:48;;;;;;;15.05;2.65;;;10.10;99.90;;;;;;5016406;28;20029;-76
2023/12/10 10:31:15;;;;;;;11.15;2.13;;;10.20;99.90;;;;;;5017169;28;20152;-76
2023/12/10 10:33:42;;;;;;;8.10;2.08;;;10.30;99.90;;;;;;5016450;28;20025;-76
2023/12/10 10:36:09;;;;;;;12.15;1.73;;;10.50;99.90;;;;;;5016454;28;20116;-76
2023/12/10 10:38:34;;;;;;;16.27;2.30;;;10.60;99.90;;;;;;5016105;28;20028;-74
2023/12/10 10:41:01;;;;;;;8.18;2.00;;;10.60;99.90;;;;;;5016145;28;20113;-73
2023/12/10 10:43:26;;;;;;;11.82;1.83;;;10.60;99.90;;;;;;5016827;28;20029;-73
2023/12/10 10:45:53;;;;;;;13.43;2.33;;;10.60;99.90;;;;;;5017068;28;20022;-72
2023/12/10 10:48:25;;;;;;;7.93;1.70;;;10.60;99.90;;;;;;5016963;28;20020;-72
2023/12/10 10:50:52;;;;;;;15.80;2.45;;;10.50;99.90;;;;;;5016956;28;20049;-72
2023/12/10 10:53:18;;;;;;;24.25;3.60;;;10.60;99.90;;;;;;5015965;28;20038;-72
2023/12/10 10:55:46;;;;;;;12.60;1.90;;;10.70;99.90;;;;;;5016468;28;20025;-72
2023/12/10 10:58:28;;;;;;;15.80;2.75;;;10.80;99.90;;;;;;5016929;28;20028;-72
2023/12/10 11:00:58;;;;;;;17.52;2.17;;;10.80;99.90;;;;;;5016729;28;20026;-72
2023/12/10 11:03:27;;;;;;;20.80;2.10;;;10.80;99.90;;;;;;5015908;28;20033;-72
2023/12/10 11:06:00;;;;;;;11.00;2.00;;;10.90;99.90;;;;;;5016771;28;20018;-72
2023/12/10 11:08:26;;;;;;;13.07;1.80;;;11.00;99.90;;;;;;5016482;28;20133;-73
2023/12/10 11:10:59;;;;;;;14.35;2.25;;;10.90;99.90;;;;;;5017241;28;20045;-72
2023/12/10 11:13:55;;;;;;;13.23;2.92;;;11.00;99.90;;;;;;5016734;28;20030;-72
2023/12/10 11:16:21;;;;;;;13.80;2.05;;;11.10;99.90;;;;;;4962291;28;20035;-72
2023/12/10 11:18:51;;;;;;;12.27;2.05;;;11.10;99.90;;;;;;4963706;28;20054;-73
2023/12/10 11:21:16;;;;;;;20.63;2.50;;;11.20;99.90;;;;;;4980012;28;20035;-72
2023/12/10 11:23:42;;;;;;;7.47;1.85;;;11.10;99.90;;;;;;4963417;28;20030;-72
2023/12/10 11:26:07;;;;;;;16.80;2.13;;;11.00;99.90;;;;;;4963533;28;20031;-72
2023/12/10 11:28:34;;;;;;;9.38;1.92;;;11.00;99.90;;;;;;4980186;28;20022;-72
2023/12/10 11:31:00;;;;;;;11.07;1.98;;;11.00;99.90;;;;;;4963378;28;20025;-72
2023/12/10 11:33:27;;;;;;;10.15;1.55;;;11.10;99.90;;;;;;4979627;28;20039;-72
2023/12/10 11:35:56;;;;;;;12.27;2.17;;;11.10;99.90;;;;;;4979525;28;20034;-72
2023/12/10 11:38:22;;;;;;;10.50;1.80;;;11.10;99.90;;;;;;4979551;28;20034;-72
2023/12/10 11:40:48;;;;;;;9.75;1.52;;;11.20;99.90;;;;;;4979533;28;20126;-68
2023/12/10 11:43:13;;;;;;;12.52;2.72;;;11.20;99.90;;;;;;5024205;22;20053;-70
2023/12/10 11:45:39;;;;;;;16.40;2.60;;;11.30;99.90;;;;;;5020041;28;20101;-69
2023/12/10 11:48:05;;;;;;;7.80;1.63;;;11.30;99.90;;;;;;5020096;28;20022;-69
2023/12/10 11:50:32;;;;;;;12.60;1.98;;;11.40;99.90;;;;;;5019958;28;20030;-69
2023/12/10 11:52:58;;;;;;;7.90;1.88;;;11.40;99.90;;;;;;5019724;28;20053;-69
2023/12/10 11:55:23;;;;;;;13.02;1.70;;;11.40;99.90;;;;;;5019981;28;20022;-69
2023/12/10 11:57:49;;;;;;;11.77;1.75;;;11.40;99.90;;;;;;5019769;28;20037;-69
2023/12/10 12:00:15;;;;;;;5.88;1.50;;;11.40;99.90;;;;;;5019913;28;20026;-69
2023/12/10 12:02:43;;;;;;;10.73;1.60;;;11.30;99.90;;;;;;5019568;28;20087;-69
2023/12/10 12:05:09;;;;;;;10.32;1.60;;;11.30;99.90;;;;;;5019024;28;20022;-69
2023/12/10 12:07:36;;;;;;;12.20;1.38;;;11.30;99.90;;;;;;5018651;28;20021;-69
2023/12/10 12:10:01;;;;;;;19.92;3.55;;;11.30;99.90;;;;;;5019205;28;20064;-69
2023/12/10 12:12:27;;;;;;;12.15;3.22;;;11.30;99.90;;;;;;5018830;28;20022;-69
2023/12/10 12:14:53;;;;;;;12.85;2.00;;;11.50;99.90;;;;;;5019422;28;20018;-69
2023/12/10 12:17:20;;;;;;;19.65;2.47;;;11.60;99.90;;;;;;5018486;28;20028;-69
2023/12/10 12:19:46;;;;;;;13.13;1.80;;;11.80;99.90;;;;;;5019440;28;20018;-69
2023/12/10 12:22:12;;;;;;;12.13;1.70;;;12.00;99.90;;;;;;5019203;28;20018;-69
2023/12/10 12:24:43;;;;;;;11.45;2.10;;;12.20;99.90;;;;;;5019134;28;20127;-69
2023/12/10 12:27:09;;;;;;;13.70;2.60;;;12.20;99.90;;;;;;5019331;28;20025;-69
2023/12/10 12:29:35;;;;;;;16.98;3.55;;;12.20;99.90;;;;;;5019042;28;20026;-69
2023/12/10 12:32:02;;;;;;;8.10;2.63;;;12.10;99.90;;;;;;5018049;28;20088;-69
2023/12/10 12:34:28;;;;;;;11.68;1.80;;;12.10;99.90;;;;;;5019128;28;20022;-69
2023/12/10 12:36:54;;;;;;;17.13;2.17;;;12.10;99.90;;;;;;5018968;28;20052;-69
2023/12/10 12:39:19;;;;;;;13.65;2.10;;;12.00;99.90;;;;;;5018136;28;20032;-69